createdAt,value
2023-05-13T00:01:31.668Z,4.43
2023-05-13T00:05:36.362Z,4.40
2023-05-13T00:09:42.580Z,4.47
2023-05-13T00:13:48.728Z,4.85
2023-05-13T00:17:54.214Z,4.88
2023-05-13T00:21:59.402Z,4.72
2023-05-13T00:26:18.668Z,5.07
2023-05-13T00:30:24.118Z,4.85
2023-05-13T00:34:30.257Z,4.55
2023-05-13T00:38:33.822Z,4.47
2023-05-13T00:42:38.273Z,4.20
2023-05-13T00:46:41.286Z,4.80
2023-05-13T00:50:44.902Z,5.13
2023-05-13T00:54:48.051Z,4.60
2023-05-13T00:58:53.756Z,4.78
2023-05-13T01:03:04.220Z,5.22
2023-05-13T01:07:15.318Z,4.95
2023-05-13T01:11:27.183Z,4.88
2023-05-13T01:15:33.007Z,5.25
2023-05-13T01:19:43.138Z,5.00
2023-05-13T01:23:49.772Z,5.53
2023-05-13T01:27:53.632Z,5.55
2023-05-13T01:31:59.732Z,4.85
2023-05-13T01:36:03.092Z,5.22
2023-05-13T01:40:24.405Z,5.45
2023-05-13T01:44:35.136Z,5.00
2023-05-13T01:48:40.040Z,4.80
2023-05-13T01:52:46.217Z,5.45
2023-05-13T01:56:52.949Z,5.32
2023-05-13T02:00:56.306Z,4.65
2023-05-13T02:05:02.132Z,6.07
2023-05-13T02:09:05.585Z,5.10
2023-05-13T02:13:12.934Z,5.38
2023-05-13T02:17:16.977Z,5.80
2023-05-13T02:21:20.394Z,5.40
2023-05-13T02:25:27.580Z,5.35
2023-05-13T02:29:31.994Z,5.22
2023-05-13T02:33:35.489Z,6.00
2023-05-13T02:37:39.154Z,5.63
2023-05-13T02:41:44.552Z,5.75
2023-05-13T02:45:54.441Z,7.05
2023-05-13T02:49:58.178Z,6.30
2023-05-13T02:54:01.179Z,6.35
2023-05-13T02:58:04.785Z,6.20
2023-05-13T03:02:09.553Z,6.28
2023-05-13T03:06:15.392Z,6.35
2023-05-13T03:10:19.620Z,6.32
2023-05-13T03:14:24.651Z,5.53
2023-05-13T03:18:31.636Z,5.93
2023-05-13T03:22:34.837Z,5.90
2023-05-13T03:26:38.107Z,5.80
2023-05-13T03:30:41.389Z,5.75
2023-05-13T03:34:46.957Z,6.00
2023-05-13T03:38:56.973Z,6.53
2023-05-13T03:43:02.433Z,6.80
2023-05-13T03:47:05.998Z,5.95
2023-05-13T03:51:10.539Z,6.60
2023-05-13T03:55:17.273Z,6.15
2023-05-13T03:59:20.281Z,6.07
2023-05-13T04:03:23.640Z,6.38
2023-05-13T04:07:28.548Z,6.30
2023-05-13T04:11:33.838Z,6.32
2023-05-13T04:15:36.868Z,6.57
2023-05-13T04:19:39.887Z,6.60
2023-05-13T04:23:44.320Z,6.65
2023-05-13T04:27:54.768Z,6.55
2023-05-13T04:31:57.813Z,6.80
2023-05-13T04:36:00.912Z,6.30
2023-05-13T04:40:06.643Z,6.90
2023-05-13T04:44:11.289Z,6.32
2023-05-13T04:48:14.401Z,6.85
2023-05-13T04:52:17.617Z,7.65
2023-05-13T04:56:22.632Z,7.18
2023-05-13T05:00:26.070Z,8.05
2023-05-13T05:04:29.316Z,7.95
2023-05-13T05:08:32.606Z,7.15
2023-05-13T05:12:39.296Z,7.47
2023-05-13T05:16:44.399Z,7.68
2023-05-13T05:20:49.241Z,7.95
2023-05-13T05:24:52.240Z,7.25
2023-05-13T05:28:59.642Z,7.47
2023-05-13T05:33:09.369Z,7.28
2023-05-13T05:37:12.586Z,7.50
2023-05-13T05:41:15.631Z,6.95
2023-05-13T05:45:21.898Z,7.05
2023-05-13T05:49:25.306Z,7.43
2023-05-13T05:53:31.805Z,6.68
2023-05-13T05:57:34.895Z,7.00
2023-05-13T06:01:39.370Z,6.85
2023-05-13T06:05:44.595Z,7.82
2023-05-13T06:09:48.048Z,6.40
2023-05-13T06:13:51.430Z,6.55
2023-05-13T06:17:56.246Z,7.10
2023-05-13T06:22:00.160Z,6.75
2023-05-13T06:26:03.898Z,5.60
2023-05-13T06:30:13.484Z,6.00
2023-05-13T06:34:18.160Z,5.72
2023-05-13T06:38:23.351Z,6.13
2023-05-13T06:42:28.189Z,5.60
2023-05-13T06:46:31.251Z,6.18
2023-05-13T06:50:36.886Z,5.72
2023-05-13T06:54:40.285Z,6.25
2023-05-13T06:58:45.328Z,5.80
2023-05-13T07:02:48.413Z,5.72
2023-05-13T07:06:57.120Z,5.22
2023-05-13T07:11:00.177Z,5.10
2023-05-13T07:15:03.154Z,5.97
2023-05-13T07:19:06.645Z,5.13
2023-05-13T07:23:12.146Z,5.28
2023-05-13T07:27:15.698Z,4.70
2023-05-13T07:31:20.533Z,5.10
2023-05-13T07:35:30.057Z,4.10
2023-05-13T07:39:34.525Z,4.05
2023-05-13T07:43:39.498Z,5.85
2023-05-13T07:47:44.497Z,4.07
2023-05-13T07:51:54.033Z,3.58
2023-05-13T07:55:58.537Z,4.18
2023-05-13T08:00:01.841Z,3.40
2023-05-13T08:04:08.400Z,3.85
2023-05-13T08:08:11.919Z,2.90
2023-05-13T08:12:16.405Z,3.47
2023-05-13T08:16:19.449Z,3.20
2023-05-13T08:20:29.636Z,3.08
2023-05-13T08:24:33.016Z,2.90
2023-05-13T08:28:40.566Z,3.20
2023-05-13T08:32:44.095Z,2.80
2023-05-13T08:36:47.196Z,2.67
2023-05-13T08:40:53.165Z,2.60
2023-05-13T08:45:01.534Z,2.53
2023-05-13T08:49:05.217Z,2.63
2023-05-13T08:53:08.625Z,2.47
2023-05-13T08:57:11.838Z,2.38
2023-05-13T09:01:16.911Z,2.20
2023-05-13T09:09:41.836Z,2.25
2023-05-13T09:13:45.627Z,2.13
2023-05-13T09:17:59.285Z,1.88
2023-05-13T09:22:02.783Z,2.00
2023-05-13T09:26:06.398Z,1.73
2023-05-13T09:30:13.876Z,1.90
2023-05-13T09:34:27.342Z,2.10
2023-05-13T09:38:32.428Z,2.35
2023-05-13T09:42:35.653Z,1.88
2023-05-13T09:46:41.646Z,1.80
2023-05-13T09:50:52.100Z,2.25
2023-05-13T09:54:57.931Z,1.98
2023-05-13T09:59:03.207Z,1.80
2023-05-13T10:03:07.005Z,2.33
2023-05-13T10:07:24.477Z,2.33
2023-05-13T10:11:31.056Z,2.20
2023-05-13T10:15:35.242Z,1.90
2023-05-13T10:19:40.813Z,1.80
2023-05-13T10:23:47.231Z,1.95
2023-05-13T10:27:52.785Z,2.38
2023-05-13T10:31:58.710Z,2.40
2023-05-13T10:36:18.817Z,1.70
2023-05-13T10:40:56.704Z,1.73
2023-05-13T10:45:00.190Z,2.00
2023-05-13T10:49:07.092Z,1.70
2023-05-13T10:53:20.867Z,2.10
2023-05-13T10:57:31.495Z,1.83
2023-05-13T11:01:37.817Z,1.88
2023-05-13T11:05:42.777Z,1.48
2023-05-13T11:09:53.385Z,1.75
2023-05-13T11:14:08.320Z,1.73
2023-05-13T11:18:17.004Z,1.70
2023-05-13T11:22:24.538Z,1.50
2023-05-13T11:26:42.378Z,1.80
2023-05-13T11:30:58.785Z,1.88
2023-05-13T11:35:04.293Z,1.70
2023-05-13T11:39:12.488Z,1.90
2023-05-13T11:43:21.688Z,1.80
2023-05-13T11:47:29.317Z,1.75
2023-05-13T11:51:38.167Z,1.58
2023-05-13T11:55:44.260Z,1.70
2023-05-13T11:59:54.951Z,1.83
2023-05-13T12:04:03.749Z,1.50
2023-05-13T12:08:09.706Z,1.40
2023-05-13T12:12:12.876Z,1.65
2023-05-13T12:16:20.514Z,1.58
2023-05-13T12:20:28.222Z,1.60
2023-05-13T12:24:34.690Z,1.30
2023-05-13T12:28:41.139Z,1.60
2023-05-13T12:32:47.192Z,1.50
2023-05-13T12:36:57.834Z,1.77
2023-05-13T12:41:14.170Z,1.75
2023-05-13T12:45:17.706Z,1.52
2023-05-13T12:49:21.363Z,1.38
2023-05-13T12:53:27.726Z,1.80
2023-05-13T12:57:32.439Z,1.77
2023-05-13T13:01:35.767Z,1.73
2023-05-13T13:05:39.181Z,1.50
2023-05-13T13:09:43.663Z,1.50
2023-05-13T13:13:49.794Z,1.45
2023-05-13T13:17:56.041Z,1.48
2023-05-13T13:22:02.190Z,1.40
2023-05-13T13:26:06.877Z,1.63
2023-05-13T13:30:13.417Z,1.73
2023-05-13T13:34:16.464Z,1.50
2023-05-13T13:38:19.520Z,1.48
2023-05-13T13:42:40.284Z,1.42
2023-05-13T13:46:49.169Z,1.67
2023-05-13T13:50:53.005Z,1.35
2023-05-13T13:54:58.217Z,1.52
2023-05-13T13:59:02.984Z,1.33
2023-05-13T14:03:08.695Z,1.60
2023-05-13T14:07:11.819Z,1.25
2023-05-13T14:11:17.220Z,1.30
2023-05-13T14:15:28.944Z,1.40
2023-05-13T14:19:33.592Z,1.45
2023-05-13T14:23:38.626Z,1.17
2023-05-13T14:27:42.033Z,1.35
2023-05-13T14:31:46.529Z,1.45
2023-05-13T14:36:00.959Z,2.05
2023-05-13T14:40:07.117Z,1.70
2023-05-13T14:44:10.151Z,1.60
2023-05-13T14:48:14.700Z,1.80
2023-05-13T14:52:18.237Z,1.80
2023-05-13T14:56:22.589Z,1.85
2023-05-13T15:00:27.856Z,1.70
2023-05-13T15:04:32.346Z,1.98
2023-05-13T15:08:38.192Z,1.80
2023-05-13T15:12:41.463Z,2.20
2023-05-13T15:16:48.468Z,1.90
2023-05-13T15:20:52.978Z,2.20
2023-05-13T15:24:56.003Z,2.15
2023-05-13T15:28:59.038Z,1.77
2023-05-13T15:33:03.795Z,1.90
2023-05-13T15:37:11.385Z,2.38
2023-05-13T15:41:15.337Z,2.30
2023-05-13T15:45:20.383Z,2.75
2023-05-13T15:49:27.507Z,2.67
2023-05-13T15:53:35.357Z,2.65
2023-05-13T15:57:42.916Z,2.85
2023-05-13T16:01:46.830Z,2.83
2023-05-13T16:05:53.981Z,2.75
2023-05-13T16:09:58.426Z,2.95
2023-05-13T16:14:02.009Z,3.03
2023-05-13T16:18:08.921Z,3.08
2023-05-13T16:22:36.143Z,3.00
2023-05-13T16:26:41.911Z,3.20
2023-05-13T16:30:46.647Z,3.20
2023-05-13T16:34:52.835Z,3.38
2023-05-13T16:38:58.247Z,3.35
2023-05-13T16:43:04.097Z,3.60
2023-05-13T16:47:08.817Z,3.40
2023-05-13T16:51:12.243Z,3.65
2023-05-13T16:55:17.305Z,4.05
2023-05-13T16:59:22.337Z,5.03
2023-05-13T17:03:26.728Z,4.28
2023-05-13T17:07:29.990Z,6.15
2023-05-13T17:11:38.249Z,4.97
2023-05-13T17:15:42.669Z,5.72
2023-05-13T17:19:47.838Z,6.18
2023-05-13T17:23:54.279Z,6.60
2023-05-13T17:27:57.336Z,5.35
2023-05-13T17:32:01.776Z,5.80
2023-05-13T17:36:07.610Z,6.40
2023-05-13T17:40:14.275Z,5.68
2023-05-13T17:44:17.626Z,6.82
2023-05-13T17:48:24.720Z,6.25
2023-05-13T17:52:32.367Z,7.10
2023-05-13T17:56:35.384Z,7.20
2023-05-13T18:00:40.690Z,7.60
2023-05-13T18:04:47.511Z,7.03
2023-05-13T18:08:50.847Z,8.60
2023-05-13T18:12:54.157Z,7.25
2023-05-13T18:17:02.300Z,8.32
2023-05-13T18:21:11.805Z,7.45
2023-05-13T18:25:18.181Z,7.25
2023-05-13T18:29:24.464Z,6.75
2023-05-13T18:33:30.764Z,8.35
2023-05-13T18:37:37.144Z,7.50
2023-05-13T18:41:40.355Z,8.07
2023-05-13T18:45:43.550Z,7.93
2023-05-13T18:49:46.671Z,8.73
2023-05-13T18:53:52.275Z,7.18
2023-05-13T18:57:55.384Z,8.27
2023-05-13T19:02:07.467Z,7.82
2023-05-13T19:06:13.362Z,8.15
2023-05-13T19:10:19.893Z,8.20
2023-05-13T19:14:23.098Z,7.88
2023-05-13T19:18:28.276Z,8.13
2023-05-13T19:22:31.327Z,7.72
2023-05-13T19:26:36.918Z,7.50
2023-05-13T19:30:41.278Z,8.30
2023-05-13T19:34:44.489Z,8.05
2023-05-13T19:38:49.955Z,7.65
2023-05-13T19:42:56.574Z,7.70
2023-05-13T19:47:00.136Z,8.15
2023-05-13T19:51:05.220Z,8.13
2023-05-13T19:55:15.311Z,8.93
2023-05-13T19:59:19.849Z,9.00
2023-05-13T20:03:24.924Z,8.70
2023-05-13T20:07:28.259Z,8.45
2023-05-13T20:11:31.633Z,8.27
2023-05-13T20:15:41.152Z,8.15
2023-05-13T20:19:44.321Z,8.50
2023-05-13T20:23:47.312Z,11.05
2023-05-13T20:27:53.276Z,8.45
2023-05-13T20:31:57.712Z,8.10
2023-05-13T20:36:00.983Z,7.93
2023-05-13T20:40:05.850Z,8.95
2023-05-13T20:44:08.846Z,7.88
2023-05-13T20:48:16.644Z,8.43
2023-05-13T20:52:19.715Z,7.95
2023-05-13T20:56:25.788Z,7.57
2023-05-13T21:00:29.314Z,7.93
2023-05-13T21:04:34.471Z,7.50
2023-05-13T21:08:41.099Z,8.55
2023-05-13T21:12:47.762Z,8.10
2023-05-13T21:16:55.332Z,8.48
2023-05-13T21:21:08.532Z,8.35
2023-05-13T21:25:11.913Z,8.38
2023-05-13T21:29:15.833Z,8.68
2023-05-13T21:33:20.340Z,7.80
2023-05-13T21:37:27.191Z,7.82
2023-05-13T21:41:33.140Z,8.40
2023-05-13T21:45:38.055Z,8.35
2023-05-13T21:49:45.612Z,7.80
2023-05-13T21:53:52.805Z,8.57
2023-05-13T21:58:03.283Z,8.27
2023-05-13T22:02:06.866Z,9.00
2023-05-13T22:06:12.359Z,8.43
2023-05-13T22:10:19.225Z,8.20
2023-05-13T22:14:22.233Z,8.27
2023-05-13T22:18:28.625Z,8.27
2023-05-13T22:22:33.043Z,8.50
2023-05-13T22:26:42.150Z,8.18
2023-05-13T22:30:49.095Z,8.20
2023-05-13T22:34:52.139Z,7.82
2023-05-13T22:38:55.094Z,9.20
2023-05-13T22:42:59.614Z,8.13
2023-05-13T22:47:04.732Z,8.65
2023-05-13T22:51:07.974Z,8.63
2023-05-13T22:55:11.640Z,9.23
2023-05-13T22:59:17.982Z,9.05
2023-05-13T23:03:21.006Z,8.65
2023-05-13T23:07:25.128Z,8.35
2023-05-13T23:11:28.578Z,8.63
2023-05-13T23:15:33.290Z,8.48
2023-05-13T23:19:38.139Z,8.95
2023-05-13T23:23:43.474Z,8.35
2023-05-13T23:27:48.369Z,9.15
2023-05-13T23:31:52.826Z,8.73
2023-05-13T23:35:56.313Z,8.82
2023-05-13T23:39:59.678Z,8.77
2023-05-13T23:44:05.837Z,9.70
2023-05-13T23:48:10.875Z,9.20
2023-05-13T23:52:13.902Z,8.98
2023-05-13T23:56:16.925Z,9.18
